Rosecrans Memorial Airport
KSTJ : now visible

Airfield :











YOU CAN JOIN US ON...

 
LOGIN :

Register | Disclaimer

   EN    FR    IT 

 









Legend :    VFR   Marginal VFR   IFR   Intensive IFR   Very Intensive IFR
Visi :
Ceiling :
>= 8 km
>= 3000ft
5 to 8 km
1000 to 3000 ft
1500m to 5 km
500 to 1000 ft
800 to 1500m
200 to 500 ft
< 800m
< 200 ft
Symbols :   Thunderstorms  Fog  Heavy snow  Heavy precipitations  Wind > 20 kt






- Airport Elevation : 826 ft


KSTJ - Rosecrans Memorial

CURRENT METAR :
  • 110453Z AUTO 18005KT 6SM BR CLR M07/M09 A3038 RMK AO2 SLP300 T10721094

EXPIRED METARs :
  • 110353Z AUTO 00000KT 9SM CLR M07/M10 A3038 RMK AO2 SLP300 T10671100
  • 110253Z AUTO 19003KT 8SM CLR M06/M09 A3038 RMK AO2 SLP299 T10611094 50000
  • 110153Z AUTO 22003KT 8SM CLR M06/M10 A3039 RMK AO2 SLP303 LAST T10611100

TAF KSTJ
Valid from the 11 at 00:00 until the 12 at 00:00 UTC


102320Z 1100/1124 VRB04KT P6SM FEW150
FM110900 21007KT P6SM SKC WS020/27040KT
FM111500 27006KT P6SM SKC
FM111800 VRB05KT P6SM SKC



MET'MAP, your aeronautical weather chart ! - Copyright ORBIFLY December 2007 - Disclaimer

ORBIFLY MET'MAP TEAM :

Programming & Development : Alexandra Zaïnal
Concept & original design : Baudouin d'Aumeries
Assistance for programming : Marc-Olivier Méhu
Technical & hardware support : Manuel Goepfert

Contact : metmap@orbifly.com




SOURCES & CREDITS :

   NOAA       Earth
Advisory